sensor_id;sensor_type;location;lat;lon;timestamp;pressure;altitude;pressure_sealevel;temperature;humidity
27210;BME280;14721;42.668;23.386;2023-02-11T00:02:02;97017.75;;;-2.34;67.07
27210;BME280;14721;42.668;23.386;2023-02-11T00:04:30;97017.75;;;-2.29;67.13
27210;BME280;14721;42.668;23.386;2023-02-11T00:06:57;97022.09;;;-2.24;67.43
27210;BME280;14721;42.668;23.386;2023-02-11T00:09:23;97010.78;;;-2.33;67.70
27210;BME280;14721;42.668;23.386;2023-02-11T00:11:49;97016.00;;;-2.38;67.63
27210;BME280;14721;42.668;23.386;2023-02-11T00:14:14;97013.38;;;-2.42;67.63
27210;BME280;14721;42.668;23.386;2023-02-11T00:16:40;97022.91;;;-2.56;68.08
27210;BME280;14721;42.668;23.386;2023-02-11T00:19:06;97022.91;;;-2.56;68.84
27210;BME280;14721;42.668;23.386;2023-02-11T00:21:33;97018.53;;;-2.66;68.64
27210;BME280;14721;42.668;23.386;2023-02-11T00:23:58;97022.88;;;-2.67;69.21
27210;BME280;14721;42.668;23.386;2023-02-11T00:26:30;97018.53;;;-2.69;69.20
27210;BME280;14721;42.668;23.386;2023-02-11T00:28:56;97011.53;;;-2.76;69.17
27210;BME280;14721;42.668;23.386;2023-02-11T00:31:22;97004.47;;;-2.92;69.46
27210;BME280;14721;42.668;23.386;2023-02-11T00:33:49;97009.63;;;-3.07;69.93
27210;BME280;14721;42.668;23.386;2023-02-11T00:36:19;97014.81;;;-3.16;70.50
27210;BME280;14721;42.668;23.386;2023-02-11T00:38:46;97010.41;;;-3.28;70.40
27210;BME280;14721;42.668;23.386;2023-02-11T00:41:13;97016.38;;;-3.53;71.67
27210;BME280;14721;42.668;23.386;2023-02-11T00:43:39;97022.53;;;-3.36;72.07
27210;BME280;14721;42.668;23.386;2023-02-11T00:46:06;96999.84;;;-3.46;71.89
27210;BME280;14721;42.668;23.386;2023-02-11T00:48:33;97003.28;;;-3.57;72.20
27210;BME280;14721;42.668;23.386;2023-02-11T00:50:58;97005.03;;;-3.53;72.26
27210;BME280;14721;42.668;23.386;2023-02-11T00:53:24;97006.00;;;-3.38;72.38
27210;BME280;14721;42.668;23.386;2023-02-11T00:55:50;97002.50;;;-3.41;71.85
27210;BME280;14721;42.668;23.386;2023-02-11T00:58:16;96999.00;;;-3.40;72.17
27210;BME280;14721;42.668;23.386;2023-02-11T01:00:42;96999.81;;;-3.53;72.11
27210;BME280;14721;42.668;23.386;2023-02-11T01:03:08;96998.13;;;-3.47;72.00
27210;BME280;14721;42.668;23.386;2023-02-11T01:05:33;97006.00;;;-3.39;71.55
27210;BME280;14721;42.668;23.386;2023-02-11T01:07:59;96995.59;;;-3.33;71.55
27210;BME280;14721;42.668;23.386;2023-02-11T01:10:25;96992.09;;;-3.29;70.84
27210;BME280;14721;42.668;23.386;2023-02-11T01:12:52;96993.88;;;-3.19;70.32
27210;BME280;14721;42.668;23.386;2023-02-11T01:15:18;96998.25;;;-3.21;70.27
27210;BME280;14721;42.668;23.386;2023-02-11T01:17:44;96998.28;;;-3.15;69.81
27210;BME280;14721;42.668;23.386;2023-02-11T01:20:15;96986.09;;;-3.09;69.17
27210;BME280;14721;42.668;23.386;2023-02-11T01:22:41;96989.66;;;-2.93;68.24
27210;BME280;14721;42.668;23.386;2023-02-11T01:25:07;96991.38;;;-2.95;67.93
27210;BME280;14721;42.668;23.386;2023-02-11T01:27:33;96984.44;;;-2.93;67.71
27210;BME280;14721;42.668;23.386;2023-02-11T01:30:00;96995.75;;;-2.96;68.08
27210;BME280;14721;42.668;23.386;2023-02-11T01:32:25;96991.34;;;-3.01;68.74
27210;BME280;14721;42.668;23.386;2023-02-11T01:34:51;96986.84;;;-3.35;69.71
27210;BME280;14721;42.668;23.386;2023-02-11T01:37:17;96988.56;;;-3.39;69.83
27210;BME280;14721;42.668;23.386;2023-02-11T01:39:43;96987.72;;;-3.38;69.87
27210;BME280;14721;42.668;23.386;2023-02-11T01:42:17;96990.31;;;-3.38;69.91
27210;BME280;14721;42.668;23.386;2023-02-11T01:44:43;96992.03;;;-3.44;70.07
27210;BME280;14721;42.668;23.386;2023-02-11T01:47:09;96991.03;;;-3.63;70.72
27210;BME280;14721;42.668;23.386;2023-02-11T01:49:44;97002.25;;;-3.77;71.54
27210;BME280;14721;42.668;23.386;2023-02-11T01:52:18;96973.31;;;-4.06;72.04
27210;BME280;14721;42.668;23.386;2023-02-11T01:54:48;96990.69;;;-4.10;73.35
27210;BME280;14721;42.668;23.386;2023-02-11T01:57:36;96987.28;;;-4.03;73.79
27210;BME280;14721;42.668;23.386;2023-02-11T02:00:09;96980.28;;;-4.04;73.70
27210;BME280;14721;42.668;23.386;2023-02-11T02:02:50;96984.63;;;-4.07;73.87
27210;BME280;14721;42.668;23.386;2023-02-11T02:05:37;96988.94;;;-4.12;74.05
27210;BME280;14721;42.668;23.386;2023-02-11T02:08:22;96986.28;;;-4.17;74.36
27210;BME280;14721;42.668;23.386;2023-02-11T02:10:51;96994.06;;;-4.20;74.41
27210;BME280;14721;42.668;23.386;2023-02-11T02:13:21;96987.09;;;-4.24;74.50
27210;BME280;14721;42.668;23.386;2023-02-11T02:15:52;96988.81;;;-4.24;74.68
27210;BME280;14721;42.668;23.386;2023-02-11T02:24:21;96991.16;;;-4.51;75.35
27210;BME280;14721;42.668;23.386;2023-02-11T02:35:34;96984.88;;;-4.71;76.10
27210;BME280;14721;42.668;23.386;2023-02-11T02:41:06;96986.44;;;-4.88;76.89
27210;BME280;14721;42.668;23.386;2023-02-11T02:43:33;96988.16;;;-4.90;77.15
27210;BME280;14721;42.668;23.386;2023-02-11T02:46:22;96980.19;;;-5.02;78.04
27210;BME280;14721;42.668;23.386;2023-02-11T02:48:49;96989.72;;;-5.04;78.24
27210;BME280;14721;42.668;23.386;2023-02-11T02:54:32;96993.38;;;-4.89;77.83
27210;BME280;14721;42.668;23.386;2023-02-11T02:57:22;96990.72;;;-4.93;78.30
27210;BME280;14721;42.668;23.386;2023-02-11T03:00:03;96995.00;;;-4.97;77.79
27210;BME280;14721;42.668;23.386;2023-02-11T03:02:37;96992.38;;;-5.00;78.00
27210;BME280;14721;42.668;23.386;2023-02-11T03:05:16;97002.72;;;-5.06;77.87
27210;BME280;14721;42.668;23.386;2023-02-11T03:10:19;97003.38;;;-5.23;77.96
27210;BME280;14721;42.668;23.386;2023-02-11T03:12:47;96994.00;;;-5.11;78.70
27210;BME280;14721;42.668;23.386;2023-02-11T03:15:16;96994.00;;;-5.11;77.99
27210;BME280;14721;42.668;23.386;2023-02-11T03:17:45;96998.28;;;-5.14;78.08
27210;BME280;14721;42.668;23.386;2023-02-11T03:20:13;96999.03;;;-5.24;78.32
27210;BME280;14721;42.668;23.386;2023-02-11T03:23:28;96995.47;;;-5.31;78.65
27210;BME280;14721;42.668;23.386;2023-02-11T03:26:01;96991.22;;;-5.24;78.36
27210;BME280;14721;42.668;23.386;2023-02-11T03:34:08;96972.78;;;-5.41;78.87
27210;BME280;14721;42.668;23.386;2023-02-11T03:36:50;96996.44;;;-5.23;79.45
27210;BME280;14721;42.668;23.386;2023-02-11T03:39:24;96987.75;;;-5.23;79.23
27210;BME280;14721;42.668;23.386;2023-02-11T03:41:54;96989.56;;;-5.18;78.40
27210;BME280;14721;42.668;23.386;2023-02-11T03:44:22;96987.84;;;-5.16;78.80
27210;BME280;14721;42.668;23.386;2023-02-11T03:46:51;96987.75;;;-5.22;78.23
27210;BME280;14721;42.668;23.386;2023-02-11T03:49:20;96986.03;;;-5.21;78.68
27210;BME280;14721;42.668;23.386;2023-02-11T03:51:50;96988.56;;;-5.29;78.61
27210;BME280;14721;42.668;23.386;2023-02-11T03:54:22;96978.97;;;-5.33;77.93
27210;BME280;14721;42.668;23.386;2023-02-11T03:56:52;96982.19;;;-5.49;78.59
27210;BME280;14721;42.668;23.386;2023-02-11T03:59:18;96984.78;;;-5.50;78.00
27210;BME280;14721;42.668;23.386;2023-02-11T04:01:44;96980.56;;;-5.42;77.93
27210;BME280;14721;42.668;23.386;2023-02-11T04:04:10;96986.84;;;-5.28;77.54
27210;BME280;14721;42.668;23.386;2023-02-11T04:06:35;96980.84;;;-5.21;77.86
27210;BME280;14721;42.668;23.386;2023-02-11T04:09:01;96990.38;;;-5.22;77.00
27210;BME280;14721;42.668;23.386;2023-02-11T04:11:27;96994.69;;;-5.25;77.41
27210;BME280;14721;42.668;23.386;2023-02-11T04:13:53;96991.03;;;-5.38;77.80
27210;BME280;14721;42.668;23.386;2023-02-11T04:16:19;96998.47;;;-5.66;78.74
27210;BME280;14721;42.668;23.386;2023-02-11T04:18:44;96999.53;;;-5.52;79.58
27210;BME280;14721;42.668;23.386;2023-02-11T04:21:10;96994.31;;;-5.54;78.85
27210;BME280;14721;42.668;23.386;2023-02-11T04:23:36;96995.94;;;-5.60;79.23
27210;BME280;14721;42.668;23.386;2023-02-11T04:26:02;96986.56;;;-5.49;79.44
27210;BME280;14721;42.668;23.386;2023-02-11T04:28:27;96989.41;;;-5.31;78.83
27210;BME280;14721;42.668;23.386;2023-02-11T04:30:54;96983.28;;;-5.35;78.56
27210;BME280;14721;42.668;23.386;2023-02-11T04:33:20;96996.28;;;-5.35;78.12
27210;BME280;14721;42.668;23.386;2023-02-11T04:35:46;96987.59;;;-5.35;78.14
27210;BME280;14721;42.668;23.386;2023-02-11T04:38:12;96981.47;;;-5.40;78.57
27210;BME280;14721;42.668;23.386;2023-02-11T04:40:38;96983.09;;;-5.48;78.28
27210;BME280;14721;42.668;23.386;2023-02-11T04:43:03;96976.06;;;-5.54;78.84
27210;BME280;14721;42.668;23.386;2023-02-11T04:45:29;96975.31;;;-5.45;79.02
27210;BME280;14721;42.668;23.386;2023-02-11T04:47:54;96978.88;;;-5.40;78.31
27210;BME280;14721;42.668;23.386;2023-02-11T04:50:20;96977.94;;;-5.44;78.61
27210;BME280;14721;42.668;23.386;2023-02-11T04:52:46;96977.88;;;-5.48;77.99
27210;BME280;14721;42.668;23.386;2023-02-11T04:55:12;96982.13;;;-5.53;78.54
27210;BME280;14721;42.668;23.386;2023-02-11T04:57:37;96983.81;;;-5.60;78.48
27210;BME280;14721;42.668;23.386;2023-02-11T05:00:04;96964.72;;;-5.59;79.07
27210;BME280;14721;42.668;23.386;2023-02-11T05:02:30;96973.34;;;-5.63;78.94
27210;BME280;14721;42.668;23.386;2023-02-11T05:04:56;96970.78;;;-5.60;78.60
27210;BME280;14721;42.668;23.386;2023-02-11T05:07:22;96975.97;;;-5.63;78.04
27210;BME280;14721;42.668;23.386;2023-02-11T05:09:47;96971.56;;;-5.65;78.44
27210;BME280;14721;42.668;23.386;2023-02-11T05:12:13;96964.53;;;-5.72;77.94
27210;BME280;14721;42.668;23.386;2023-02-11T05:14:39;96968.94;;;-5.67;77.89
27210;BME280;14721;42.668;23.386;2023-02-11T05:17:06;96967.97;;;-5.75;78.08
27210;BME280;14721;42.668;23.386;2023-02-11T05:19:31;96969.72;;;-5.74;78.68
27210;BME280;14721;42.668;23.386;2023-02-11T05:21:57;96956.69;;;-5.75;78.79
27210;BME280;14721;42.668;23.386;2023-02-11T05:24:23;96969.72;;;-5.74;78.41
27210;BME280;14721;42.668;23.386;2023-02-11T05:26:48;96983.47;;;-5.85;78.52
27210;BME280;14721;42.668;23.386;2023-02-11T05:29:14;96978.19;;;-5.90;78.77
27210;BME280;14721;42.668;23.386;2023-02-11T05:31:39;96962.66;;;-5.85;79.28
27210;BME280;14721;42.668;23.386;2023-02-11T05:34:05;96970.31;;;-5.96;79.71
27210;BME280;14721;42.668;23.386;2023-02-11T05:36:31;96969.53;;;-5.89;79.67
27210;BME280;14721;42.668;23.386;2023-02-11T05:38:57;96971.34;;;-5.83;79.86
27210;BME280;14721;42.668;23.386;2023-02-11T05:41:22;96972.09;;;-5.91;79.56
27210;BME280;14721;42.668;23.386;2023-02-11T05:43:49;96960.06;;;-5.81;79.62
27210;BME280;14721;42.668;23.386;2023-02-11T05:46:16;96962.84;;;-5.69;79.40
27210;BME280;14721;42.668;23.386;2023-02-11T05:48:42;96974.31;;;-5.55;78.86
27210;BME280;14721;42.668;23.386;2023-02-11T05:51:08;96980.84;;;-5.21;78.23
27210;BME280;14721;42.668;23.386;2023-02-11T05:53:34;96977.94;;;-4.71;76.65
27210;BME280;14721;42.668;23.386;2023-02-11T05:56:00;96967.88;;;-4.33;74.36
27210;BME280;14721;42.668;23.386;2023-02-11T05:58:26;96975.13;;;-3.93;73.51
27210;BME280;14721;42.668;23.386;2023-02-11T06:00:52;96974.66;;;-3.36;71.06
27210;BME280;14721;42.668;23.386;2023-02-11T06:03:17;96974.91;;;-2.76;69.02
27210;BME280;14721;42.668;23.386;2023-02-11T06:05:44;96973.22;;;-2.49;66.64
27210;BME280;14721;42.668;23.386;2023-02-11T06:08:10;96979.38;;;-2.06;65.02
27210;BME280;14721;42.668;23.386;2023-02-11T06:10:36;96982.84;;;-1.68;63.14
27210;BME280;14721;42.668;23.386;2023-02-11T06:13:02;96977.59;;;-1.54;62.35
27210;BME280;14721;42.668;23.386;2023-02-11T06:15:28;96978.44;;;-1.43;61.75
27210;BME280;14721;42.668;23.386;2023-02-11T06:17:54;96978.41;;;-1.21;61.26
27210;BME280;14721;42.668;23.386;2023-02-11T06:20:19;96980.91;;;-0.92;60.07
27210;BME280;14721;42.668;23.386;2023-02-11T06:22:45;96975.31;;;-0.25;59.53
27210;BME280;14721;42.668;23.386;2023-02-11T06:25:11;96975.97;;;0.01;57.56
27210;BME280;14721;42.668;23.386;2023-02-11T06:27:38;96978.88;;;-0.33;56.71
27210;BME280;14721;42.668;23.386;2023-02-11T06:30:04;96974.22;;;0.03;56.38
27210;BME280;14721;42.668;23.386;2023-02-11T06:32:30;96976.16;;;-0.17;55.73
27210;BME280;14721;42.668;23.386;2023-02-11T06:34:56;96979.75;;;-0.36;55.71
27210;BME280;14721;42.668;23.386;2023-02-11T06:37:22;96970.03;;;-0.20;56.06
27210;BME280;14721;42.668;23.386;2023-02-11T06:39:47;96971.44;;;0.23;56.31
27210;BME280;14721;42.668;23.386;2023-02-11T06:42:13;96972.78;;;0.65;54.29
27210;BME280;14721;42.668;23.386;2023-02-11T06:44:39;96974.56;;;0.66;54.36
27210;BME280;14721;42.668;23.386;2023-02-11T06:47:05;96976.16;;;0.80;53.70
27210;BME280;14721;42.668;23.386;2023-02-11T06:49:30;96977.88;;;0.83;53.71
27210;BME280;14721;42.668;23.386;2023-02-11T06:51:56;96977.06;;;0.79;53.41
27210;BME280;14721;42.668;23.386;2023-02-11T06:54:21;96976.97;;;0.87;53.16
27210;BME280;14721;42.668;23.386;2023-02-11T06:56:47;96976.69;;;1.11;52.97
27210;BME280;14721;42.668;23.386;2023-02-11T06:59:18;96987.47;;;1.59;51.98
27210;BME280;14721;42.668;23.386;2023-02-11T07:01:47;96973.28;;;1.71;50.63
27210;BME280;14721;42.668;23.386;2023-02-11T07:04:13;96981.84;;;1.85;50.55
27210;BME280;14721;42.668;23.386;2023-02-11T07:06:40;96977.56;;;1.78;49.77
27210;BME280;14721;42.668;23.386;2023-02-11T07:09:06;96980.19;;;1.79;50.54
27210;BME280;14721;42.668;23.386;2023-02-11T07:11:32;96981.72;;;1.92;50.32
27210;BME280;14721;42.668;23.386;2023-02-11T07:14:05;96962.88;;;2.18;49.87
27210;BME280;14721;42.668;23.386;2023-02-11T07:16:33;96970.22;;;2.53;49.10
27210;BME280;14721;42.668;23.386;2023-02-11T07:18:59;96967.69;;;2.45;48.74
27210;BME280;14721;42.668;23.386;2023-02-11T07:21:25;96958.06;;;2.44;48.76
27210;BME280;14721;42.668;23.386;2023-02-11T07:23:51;96954.25;;;2.60;49.10
27210;BME280;14721;42.668;23.386;2023-02-11T07:26:20;96953.81;;;2.83;48.19
27210;BME280;14721;42.668;23.386;2023-02-11T07:28:50;96954.25;;;3.07;47.84
27210;BME280;14721;42.668;23.386;2023-02-11T07:31:27;96949.53;;;3.21;47.27
27210;BME280;14721;42.668;23.386;2023-02-11T07:33:54;96948.72;;;3.19;47.43
27210;BME280;14721;42.668;23.386;2023-02-11T07:36:20;96941.69;;;3.59;46.94
27210;BME280;14721;42.668;23.386;2023-02-11T07:38:46;96946.66;;;3.74;46.16
27210;BME280;14721;42.668;23.386;2023-02-11T07:41:14;96938.72;;;3.74;46.33
27210;BME280;14721;42.668;23.386;2023-02-11T07:43:40;96941.13;;;3.85;45.41
27210;BME280;14721;42.668;23.386;2023-02-11T07:46:09;96936.72;;;3.46;46.13
27210;BME280;14721;42.668;23.386;2023-02-11T07:48:35;96941.84;;;3.92;45.56
27210;BME280;14721;42.668;23.386;2023-02-11T07:51:11;96934.31;;;4.12;44.53
27210;BME280;14721;42.668;23.386;2023-02-11T07:53:37;96941.00;;;4.28;44.64
27210;BME280;14721;42.668;23.386;2023-02-11T07:56:07;96933.19;;;4.22;45.11
27210;BME280;14721;42.668;23.386;2023-02-11T07:58:33;96917.03;;;4.34;44.73
27210;BME280;14721;42.668;23.386;2023-02-11T08:01:06;96930.69;;;4.51;43.95
27210;BME280;14721;42.668;23.386;2023-02-11T08:03:32;96922.44;;;4.63;43.56
27210;BME280;14721;42.668;23.386;2023-02-11T08:06:02;96928.59;;;4.63;43.06
27210;BME280;14721;42.668;23.386;2023-02-11T08:08:28;96923.22;;;4.66;43.44
27210;BME280;14721;42.668;23.386;2023-02-11T08:10:53;96925.28;;;4.89;42.95
27210;BME280;14721;42.668;23.386;2023-02-11T08:13:19;96925.63;;;5.38;42.00
27210;BME280;14721;42.668;23.386;2023-02-11T08:15:44;96915.22;;;5.01;41.80
27210;BME280;14721;42.668;23.386;2023-02-11T08:18:10;96915.59;;;4.54;42.71
27210;BME280;14721;42.668;23.386;2023-02-11T08:20:35;96909.84;;;4.04;43.95
27210;BME280;14721;42.668;23.386;2023-02-11T08:23:01;96912.44;;;3.67;44.09
27210;BME280;14721;42.668;23.386;2023-02-11T08:25:26;96915.28;;;3.17;45.82
27210;BME280;14721;42.668;23.386;2023-02-11T08:27:52;96918.00;;;2.70;46.38
27210;BME280;14721;42.668;23.386;2023-02-11T08:30:18;96915.84;;;2.44;47.43
27210;BME280;14721;42.668;23.386;2023-02-11T08:32:43;96920.50;;;2.29;48.56
27210;BME280;14721;42.668;23.386;2023-02-11T08:35:09;96923.84;;;1.86;48.54
27210;BME280;14721;42.668;23.386;2023-02-11T08:37:36;96922.34;;;1.69;49.93
27210;BME280;14721;42.668;23.386;2023-02-11T08:40:02;96933.25;;;1.45;50.10
27210;BME280;14721;42.668;23.386;2023-02-11T08:42:28;96925.75;;;1.15;50.77
27210;BME280;14721;42.668;23.386;2023-02-11T08:44:53;96926.16;;;0.80;52.06
27210;BME280;14721;42.668;23.386;2023-02-11T08:47:19;96922.72;;;0.72;53.37
27210;BME280;14721;42.668;23.386;2023-02-11T08:49:44;96921.91;;;0.69;53.09
27210;BME280;14721;42.668;23.386;2023-02-11T08:52:10;96922.66;;;0.80;53.14
27210;BME280;14721;42.668;23.386;2023-02-11T08:54:36;96922.53;;;0.90;53.02
27210;BME280;14721;42.668;23.386;2023-02-11T08:57:02;96919.88;;;0.90;54.05
27210;BME280;14721;42.668;23.386;2023-02-11T08:59:27;96927.88;;;0.83;54.11
27210;BME280;14721;42.668;23.386;2023-02-11T09:01:53;96916.22;;;1.05;54.95
27210;BME280;14721;42.668;23.386;2023-02-11T09:04:18;96920.47;;;1.15;53.24
27210;BME280;14721;42.668;23.386;2023-02-11T09:06:44;96922.31;;;1.07;53.52
27210;BME280;14721;42.668;23.386;2023-02-11T09:09:11;96916.25;;;1.03;53.69
27210;BME280;14721;42.668;23.386;2023-02-11T09:11:38;96912.81;;;0.95;53.91
27210;BME280;14721;42.668;23.386;2023-02-11T09:14:05;96921.56;;;1.00;54.19
27210;BME280;14721;42.668;23.386;2023-02-11T09:16:33;96906.59;;;1.01;54.57
27210;BME280;14721;42.668;23.386;2023-02-11T09:19:00;96897.75;;;1.08;54.09
27210;BME280;14721;42.668;23.386;2023-02-11T09:21:26;96900.34;;;1.11;53.80
27210;BME280;14721;42.668;23.386;2023-02-11T09:23:52;96894.09;;;1.18;52.99
27210;BME280;14721;42.668;23.386;2023-02-11T09:26:25;96904.31;;;1.42;52.70
27210;BME280;14721;42.668;23.386;2023-02-11T09:28:51;96899.19;;;1.33;52.52
27210;BME280;14721;42.668;23.386;2023-02-11T09:31:19;96900.03;;;1.35;53.11
27210;BME280;14721;42.668;23.386;2023-02-11T09:33:47;96893.72;;;1.45;53.48
27210;BME280;14721;42.668;23.386;2023-02-11T09:36:15;96886.81;;;1.38;52.95
27210;BME280;14721;42.668;23.386;2023-02-11T09:38:42;96893.78;;;1.42;53.12
27210;BME280;14721;42.668;23.386;2023-02-11T09:41:24;96886.94;;;1.29;53.14
27210;BME280;14721;42.668;23.386;2023-02-11T09:44:00;96873.97;;;1.15;53.09
27210;BME280;14721;42.668;23.386;2023-02-11T09:46:33;96872.13;;;1.20;53.46
27210;BME280;14721;42.668;23.386;2023-02-11T09:49:01;96868.47;;;1.32;53.55
27210;BME280;14721;42.668;23.386;2023-02-11T09:51:48;96866.47;;;1.47;52.72
27210;BME280;14721;42.668;23.386;2023-02-11T09:54:22;96857.72;;;1.47;51.80
27210;BME280;14721;42.668;23.386;2023-02-11T09:56:50;96859.31;;;1.57;51.80
27210;BME280;14721;42.668;23.386;2023-02-11T09:59:16;96847.81;;;1.61;51.54
27210;BME280;14721;42.668;23.386;2023-02-11T10:02:12;96845.34;;;1.50;49.36
27210;BME280;14721;42.668;23.386;2023-02-11T10:24:13;96798.16;;;1.90;49.59
27210;BME280;14721;42.668;23.386;2023-02-11T10:26:40;96793.63;;;1.98;47.97
27210;BME280;14721;42.668;23.386;2023-02-11T10:29:16;96782.44;;;1.84;47.69
27210;BME280;14721;42.668;23.386;2023-02-11T10:31:45;96785.19;;;1.78;47.43
27210;BME280;14721;42.668;23.386;2023-02-11T10:34:13;96767.59;;;1.80;48.06
27210;BME280;14721;42.668;23.386;2023-02-11T10:36:43;96769.09;;;1.94;47.72
27210;BME280;14721;42.668;23.386;2023-02-11T10:39:17;96757.50;;;2.02;46.58
27210;BME280;14721;42.668;23.386;2023-02-11T10:41:47;96750.34;;;2.10;47.06
27210;BME280;14721;42.668;23.386;2023-02-11T10:44:28;96747.81;;;2.04;47.31
27210;BME280;14721;42.668;23.386;2023-02-11T10:46:56;96733.38;;;2.23;47.59
27210;BME280;14721;42.668;23.386;2023-02-11T10:49:37;96731.59;;;2.25;46.76
27210;BME280;14721;42.668;23.386;2023-02-11T10:52:22;96730.63;;;2.29;46.31
27210;BME280;14721;42.668;23.386;2023-02-11T10:55:13;96714.66;;;2.35;45.51
27210;BME280;14721;42.668;23.386;2023-02-11T10:57:54;96713.59;;;2.45;45.97
27210;BME280;14721;42.668;23.386;2023-02-11T11:00:34;96714.47;;;2.44;46.25
27210;BME280;14721;42.668;23.386;2023-02-11T11:03:26;96710.00;;;2.49;46.21
27210;BME280;14721;42.668;23.386;2023-02-11T11:06:00;96701.50;;;2.74;46.59
27210;BME280;14721;42.668;23.386;2023-02-11T11:08:49;96700.38;;;2.84;46.33
27210;BME280;14721;42.668;23.386;2023-02-11T11:11:21;96701.16;;;2.89;44.55
27210;BME280;14721;42.668;23.386;2023-02-11T11:16:20;96690.72;;;2.85;44.23
27210;BME280;14721;42.668;23.386;2023-02-11T11:24:02;96694.50;;;2.72;44.00
27210;BME280;14721;42.668;23.386;2023-02-11T11:26:40;96683.84;;;2.76;44.34
27210;BME280;14721;42.668;23.386;2023-02-11T11:29:09;96698.66;;;2.83;43.73
27210;BME280;14721;42.668;23.386;2023-02-11T11:34:20;96680.88;;;2.90;42.51
27210;BME280;14721;42.668;23.386;2023-02-11T11:36:46;96690.72;;;2.85;43.13
27210;BME280;14721;42.668;23.386;2023-02-11T11:39:28;96680.94;;;2.88;43.25
27210;BME280;14721;42.668;23.386;2023-02-11T11:42:19;96667.09;;;2.79;43.92
27210;BME280;14721;42.668;23.386;2023-02-11T11:44:41;96660.78;;;2.84;43.37
27210;BME280;14721;42.668;23.386;2023-02-11T11:58:15;96646.75;;;3.19;42.16
27210;BME280;14721;42.668;23.386;2023-02-11T12:09:36;96627.69;;;3.41;41.30
27210;BME280;14721;42.668;23.386;2023-02-11T12:20:17;96617.59;;;3.57;43.01
27210;BME280;14721;42.668;23.386;2023-02-11T12:23:13;96609.19;;;3.73;42.69
27210;BME280;14721;42.668;23.386;2023-02-11T12:59:33;96547.34;;;4.10;37.47
27210;BME280;14721;42.668;23.386;2023-02-11T13:02:13;96550.78;;;4.12;37.75
27210;BME280;14721;42.668;23.386;2023-02-11T13:04:45;96548.31;;;4.06;38.35
27210;BME280;14721;42.668;23.386;2023-02-11T13:07:31;96556.06;;;4.12;37.80
27210;BME280;14721;42.668;23.386;2023-02-11T13:10:04;96554.16;;;4.17;38.14
27210;BME280;14721;42.668;23.386;2023-02-11T13:12:34;96543.56;;;4.17;38.08
27210;BME280;14721;42.668;23.386;2023-02-11T13:15:19;96547.16;;;4.16;39.23
27210;BME280;14721;42.668;23.386;2023-02-11T13:17:54;96538.16;;;4.21;39.49
27210;BME280;14721;42.668;23.386;2023-02-11T13:20:46;96536.00;;;4.34;40.02
27210;BME280;14721;42.668;23.386;2023-02-11T13:23:21;96532.44;;;4.35;39.91
27210;BME280;14721;42.668;23.386;2023-02-11T13:30:51;96528.88;;;4.36;39.40
27210;BME280;14721;42.668;23.386;2023-02-11T13:33:35;96522.59;;;4.40;38.33
27210;BME280;14721;42.668;23.386;2023-02-11T13:38:27;96530.28;;;4.47;38.08
27210;BME280;14721;42.668;23.386;2023-02-11T13:41:06;96518.72;;;4.50;38.23
27210;BME280;14721;42.668;23.386;2023-02-11T13:43:40;96522.03;;;4.56;37.83
27210;BME280;14721;42.668;23.386;2023-02-11T13:46:07;96518.47;;;4.57;37.78
27210;BME280;14721;42.668;23.386;2023-02-11T13:48:52;96518.31;;;4.62;37.88
27210;BME280;14721;42.668;23.386;2023-02-11T13:51:39;96502.88;;;4.48;37.77
27210;BME280;14721;42.668;23.386;2023-02-11T13:54:08;96503.75;;;4.49;38.09
27210;BME280;14721;42.668;23.386;2023-02-11T13:56:43;96504.09;;;4.38;37.80
27210;BME280;14721;42.668;23.386;2023-02-11T14:25:03;96487.75;;;4.53;36.90
27210;BME280;14721;42.668;23.386;2023-02-11T14:40:31;96470.16;;;4.51;37.11
27210;BME280;14721;42.668;23.386;2023-02-11T14:43:10;96475.53;;;4.48;37.05
27210;BME280;14721;42.668;23.386;2023-02-11T14:45:37;96468.84;;;4.38;37.49
27210;BME280;14721;42.668;23.386;2023-02-11T14:48:06;96463.53;;;4.38;37.42
27210;BME280;14721;42.668;23.386;2023-02-11T14:50:44;96475.66;;;4.45;37.96
27210;BME280;14721;42.668;23.386;2023-02-11T14:53:16;96476.78;;;4.38;38.20
27210;BME280;14721;42.668;23.386;2023-02-11T14:55:45;96474.22;;;4.35;38.77
27210;BME280;14721;42.668;23.386;2023-02-11T14:58:23;96477.16;;;4.26;38.96
27210;BME280;14721;42.668;23.386;2023-02-11T15:01:04;96478.88;;;4.27;38.87
27210;BME280;14721;42.668;23.386;2023-02-11T15:03:39;96480.81;;;4.22;38.65
27210;BME280;14721;42.668;23.386;2023-02-11T15:08:44;96470.53;;;4.13;39.06
27210;BME280;14721;42.668;23.386;2023-02-11T15:11:13;96463.69;;;4.06;39.21
27210;BME280;14721;42.668;23.386;2023-02-11T15:13:40;96466.22;;;4.09;40.03
27210;BME280;14721;42.668;23.386;2023-02-11T15:16:16;96471.75;;;4.01;40.34
27210;BME280;14721;42.668;23.386;2023-02-11T15:18:48;96468.38;;;3.98;40.25
27210;BME280;14721;42.668;23.386;2023-02-11T15:21:27;96460.44;;;3.98;39.93
27210;BME280;14721;42.668;23.386;2023-02-11T15:24:03;96450.13;;;3.88;40.40
27210;BME280;14721;42.668;23.386;2023-02-11T15:26:32;96458.69;;;3.97;39.73
27210;BME280;14721;42.668;23.386;2023-02-11T15:28:58;96456.53;;;3.80;40.80
27210;BME280;14721;42.668;23.386;2023-02-11T15:31:26;96452.13;;;3.80;40.50
27210;BME280;14721;42.668;23.386;2023-02-11T15:33:52;96455.78;;;3.76;40.64
27210;BME280;14721;42.668;23.386;2023-02-11T15:36:22;96448.75;;;3.75;41.20
27210;BME280;14721;42.668;23.386;2023-02-11T15:39:15;96445.75;;;3.58;41.61
27210;BME280;14721;42.668;23.386;2023-02-11T15:41:41;96445.84;;;3.55;42.08
27210;BME280;14721;42.668;23.386;2023-02-11T15:44:26;96437.19;;;3.50;42.61
27210;BME280;14721;42.668;23.386;2023-02-11T15:46:52;96442.50;;;3.49;42.51
27210;BME280;14721;42.668;23.386;2023-02-11T15:49:18;96441.94;;;3.38;43.09
27210;BME280;14721;42.668;23.386;2023-02-11T15:51:45;96449.84;;;3.39;42.63
27210;BME280;14721;42.668;23.386;2023-02-11T15:54:29;96444.09;;;3.25;42.91
27210;BME280;14721;42.668;23.386;2023-02-11T15:57:01;96455.34;;;3.32;42.75
27210;BME280;14721;42.668;23.386;2023-02-11T15:59:33;96455.97;;;3.09;43.39